createdAt,value
2022-10-13T00:00:52.997Z,76.42
2022-10-13T00:02:56.176Z,76.40
2022-10-13T00:04:58.949Z,75.66
2022-10-13T00:07:04.756Z,76.12
2022-10-13T00:09:07.547Z,76.31
2022-10-13T00:11:13.041Z,76.13
2022-10-13T00:13:16.837Z,75.35
2022-10-13T00:15:20.645Z,76.20
2022-10-13T00:17:24.137Z,76.20
2022-10-13T00:19:27.721Z,76.33
2022-10-13T00:21:30.535Z,76.49
2022-10-13T00:23:36.734Z,76.66
2022-10-13T00:25:44.433Z,76.59
2022-10-13T00:27:48.014Z,76.74
2022-10-13T00:29:50.740Z,76.79
2022-10-13T00:31:53.503Z,76.64
2022-10-13T00:33:58.150Z,76.62
2022-10-13T00:36:00.870Z,76.62
2022-10-13T00:38:03.666Z,76.41
2022-10-13T00:40:09.379Z,76.44
2022-10-13T00:42:13.399Z,76.48
2022-10-13T00:44:59.670Z,76.53
2022-10-13T00:47:02.478Z,76.60
2022-10-13T00:49:09.511Z,76.92
2022-10-13T00:51:16.099Z,76.43
2022-10-13T00:53:22.305Z,76.30
2022-10-13T00:55:31.770Z,76.42
2022-10-13T00:57:34.664Z,76.65
2022-10-13T00:59:40.084Z,76.57
2022-10-13T01:01:42.859Z,76.52
2022-10-13T01:03:45.686Z,76.55
2022-10-13T01:05:49.603Z,76.31
2022-10-13T01:07:53.876Z,76.34
2022-10-13T01:09:56.872Z,76.24
2022-10-13T01:12:10.978Z,75.72
2022-10-13T01:14:21.420Z,76.20
2022-10-13T01:16:29.523Z,76.14
2022-10-13T01:18:41.989Z,76.09
2022-10-13T01:21:20.597Z,76.48
2022-10-13T01:23:50.870Z,76.50
2022-10-13T01:26:18.205Z,76.58
2022-10-13T01:28:42.474Z,77.01
2022-10-13T01:30:51.508Z,77.02
2022-10-13T01:33:18.660Z,76.71
2022-10-13T01:35:30.066Z,76.71
2022-10-13T01:37:37.152Z,76.40
2022-10-13T01:39:46.081Z,76.76
2022-10-13T01:41:54.959Z,76.65
2022-10-13T01:44:05.050Z,76.47
2022-10-13T01:46:15.240Z,76.64
2022-10-13T01:48:18.906Z,76.49
2022-10-13T01:50:27.538Z,76.91
2022-10-13T01:52:36.273Z,76.52
2022-10-13T01:54:39.023Z,76.41
2022-10-13T01:56:41.779Z,75.90
2022-10-13T01:58:45.661Z,76.03
2022-10-13T02:01:00.300Z,76.16
2022-10-13T02:03:13.354Z,76.23
2022-10-13T02:05:26.693Z,76.19
2022-10-13T02:07:36.317Z,76.74
2022-10-13T02:09:45.777Z,77.00
2022-10-13T02:11:55.012Z,77.01
2022-10-13T02:14:05.307Z,76.93
2022-10-13T02:16:08.825Z,76.95
2022-10-13T02:18:15.230Z,76.58
2022-10-13T02:20:20.166Z,76.42
2022-10-13T02:22:27.864Z,76.75
2022-10-13T02:24:31.693Z,77.03
2022-10-13T02:26:36.242Z,76.69
2022-10-13T02:28:42.434Z,76.82
2022-10-13T02:30:46.903Z,76.92
2022-10-13T02:32:49.688Z,77.21
2022-10-13T02:34:53.940Z,76.48
2022-10-13T02:36:56.660Z,77.12
2022-10-13T02:38:59.504Z,76.68
2022-10-13T02:41:02.946Z,76.79
2022-10-13T02:43:05.901Z,76.79
2022-10-13T02:45:10.184Z,77.01
2022-10-13T02:47:13.239Z,76.90
2022-10-13T02:49:15.950Z,76.98
2022-10-13T02:51:20.049Z,77.00
2022-10-13T02:53:22.844Z,77.33
2022-10-13T02:55:25.640Z,77.26
2022-10-13T02:57:32.434Z,77.71
2022-10-13T02:59:35.225Z,77.70
2022-10-13T03:01:41.288Z,77.55
2022-10-13T03:03:44.409Z,77.56
2022-10-13T03:05:47.213Z,78.00
2022-10-13T03:07:51.771Z,77.96
2022-10-13T03:09:54.544Z,78.46
2022-10-13T03:11:57.552Z,77.96
2022-10-13T03:14:00.412Z,77.98
2022-10-13T03:16:03.379Z,78.35
2022-10-13T03:18:06.338Z,78.74
2022-10-13T03:20:10.417Z,78.03
2022-10-13T03:22:15.316Z,78.35
2022-10-13T03:24:19.482Z,78.98
2022-10-13T03:26:22.239Z,79.11
2022-10-13T03:28:25.245Z,79.15
2022-10-13T03:30:29.503Z,79.71
2022-10-13T03:32:32.280Z,79.40
2022-10-13T03:34:35.069Z,80.03
2022-10-13T03:36:37.926Z,79.85
2022-10-13T03:38:41.127Z,80.20
2022-10-13T03:40:46.043Z,80.74
2022-10-13T03:42:48.810Z,80.40
2022-10-13T03:44:56.105Z,80.29
2022-10-13T03:46:59.356Z,80.24
2022-10-13T03:49:02.149Z,80.19
2022-10-13T03:51:06.911Z,80.02
2022-10-13T03:53:12.479Z,80.42
2022-10-13T03:55:15.595Z,79.92
2022-10-13T03:57:19.701Z,80.26
2022-10-13T03:59:22.504Z,80.28
2022-10-13T04:01:27.394Z,79.94
2022-10-13T04:03:30.266Z,80.13
2022-10-13T04:05:34.878Z,79.83
2022-10-13T04:07:37.585Z,80.27
2022-10-13T04:09:47.809Z,80.45
2022-10-13T04:11:52.086Z,79.78
2022-10-13T04:13:57.085Z,79.42
2022-10-13T04:16:03.819Z,78.77
2022-10-13T04:18:23.833Z,78.76
2022-10-13T04:20:27.190Z,78.73
2022-10-13T04:22:30.656Z,79.20
2022-10-13T04:24:33.427Z,79.30
2022-10-13T04:26:37.652Z,78.78
2022-10-13T04:28:43.495Z,78.70
2022-10-13T04:30:49.569Z,78.87
2022-10-13T04:32:52.685Z,78.63
2022-10-13T04:34:55.487Z,78.68
2022-10-13T04:36:58.384Z,78.26
2022-10-13T04:39:01.279Z,78.14
2022-10-13T04:41:04.969Z,78.50
2022-10-13T04:43:07.799Z,78.54
2022-10-13T04:45:11.071Z,78.49
2022-10-13T04:47:17.611Z,78.72
2022-10-13T04:49:20.391Z,78.83
2022-10-13T04:51:25.721Z,78.49
2022-10-13T04:53:29.844Z,78.29
2022-10-13T04:55:32.941Z,78.93
2022-10-13T04:57:35.818Z,78.77
2022-10-13T04:59:38.617Z,78.71
2022-10-13T05:01:41.412Z,79.51
2022-10-13T05:03:52.391Z,79.12
2022-10-13T05:05:55.308Z,79.36
2022-10-13T05:07:58.037Z,79.71
2022-10-13T05:10:00.827Z,79.86
2022-10-13T05:12:03.619Z,79.41
2022-10-13T05:14:06.407Z,79.43
2022-10-13T05:16:10.458Z,79.04
2022-10-13T05:18:13.400Z,79.58
2022-10-13T05:20:17.694Z,79.96
2022-10-13T05:22:20.691Z,79.61
2022-10-13T05:24:31.151Z,79.86
2022-10-13T05:26:36.786Z,79.73
2022-10-13T05:28:40.152Z,79.54
2022-10-13T05:30:42.932Z,79.65
2022-10-13T05:32:46.833Z,79.08
2022-10-13T05:34:52.671Z,79.43
2022-10-13T05:36:56.859Z,79.70
2022-10-13T05:39:01.552Z,79.01
2022-10-13T05:41:04.791Z,80.45
2022-10-13T05:43:07.552Z,80.55
2022-10-13T05:45:12.094Z,81.14
2022-10-13T05:47:14.825Z,81.04
2022-10-13T05:49:17.565Z,80.78
2022-10-13T05:51:25.137Z,80.40
2022-10-13T05:53:31.896Z,80.69
2022-10-13T05:55:34.649Z,80.82
2022-10-13T05:57:41.053Z,80.96
2022-10-13T05:59:48.615Z,80.49
2022-10-13T06:01:53.275Z,80.85
2022-10-13T06:03:59.806Z,80.08
2022-10-13T06:06:02.857Z,79.75
2022-10-13T06:08:05.943Z,79.71
2022-10-13T06:10:11.886Z,79.43
2022-10-13T06:12:14.929Z,79.92
2022-10-13T06:14:17.689Z,79.92
2022-10-13T06:16:20.463Z,79.90
2022-10-13T06:18:23.784Z,80.08
2022-10-13T06:20:27.380Z,80.01
2022-10-13T06:22:30.177Z,80.48
2022-10-13T06:24:32.897Z,80.54
2022-10-13T06:26:36.996Z,80.21
2022-10-13T06:28:39.835Z,80.61
2022-10-13T06:30:46.859Z,80.82
2022-10-13T06:32:50.683Z,80.96
2022-10-13T06:34:53.486Z,80.79
2022-10-13T06:36:56.347Z,81.67
2022-10-13T06:38:59.079Z,81.79
2022-10-13T06:41:02.019Z,80.93
2022-10-13T06:43:09.100Z,81.08
2022-10-13T06:45:17.183Z,81.30
2022-10-13T06:47:19.991Z,81.42
2022-10-13T06:49:24.163Z,81.40
2022-10-13T06:51:26.924Z,80.98
2022-10-13T06:53:29.977Z,80.54
2022-10-13T06:55:32.721Z,80.66
2022-10-13T06:57:35.501Z,81.34
2022-10-13T06:59:41.996Z,81.10
2022-10-13T07:01:44.883Z,81.26
2022-10-13T07:03:50.244Z,81.56
2022-10-13T07:05:55.964Z,81.00
2022-10-13T07:07:58.739Z,81.02
2022-10-13T07:10:01.467Z,80.77
2022-10-13T07:12:04.443Z,81.00
2022-10-13T07:14:07.207Z,80.90
2022-10-13T07:16:12.160Z,80.75
2022-10-13T07:18:14.927Z,80.31
2022-10-13T07:20:17.795Z,80.58
2022-10-13T07:22:20.582Z,80.57
2022-10-13T07:24:23.399Z,80.17
2022-10-13T07:26:26.203Z,80.60
2022-10-13T07:28:29.055Z,80.32
2022-10-13T07:30:32.035Z,80.50
2022-10-13T07:32:36.993Z,80.43
2022-10-13T07:34:42.811Z,80.20
2022-10-13T07:36:45.558Z,80.28
2022-10-13T07:38:48.409Z,79.92
2022-10-13T07:40:51.381Z,80.68
2022-10-13T07:42:54.155Z,80.05
2022-10-13T07:44:56.967Z,79.34
2022-10-13T07:47:02.558Z,79.42
2022-10-13T07:49:06.704Z,79.41
2022-10-13T07:51:11.291Z,79.37
2022-10-13T07:53:15.066Z,79.48
2022-10-13T07:55:18.000Z,79.48
2022-10-13T07:57:20.871Z,80.16
2022-10-13T07:59:23.667Z,80.16
2022-10-13T08:01:26.641Z,80.31
2022-10-13T08:03:30.219Z,80.33
2022-10-13T08:05:34.417Z,79.95
2022-10-13T08:07:39.275Z,80.10
2022-10-13T08:09:42.254Z,79.51
2022-10-13T08:11:45.024Z,79.51
2022-10-13T08:13:49.669Z,79.57
2022-10-13T08:15:56.358Z,79.50
2022-10-13T08:17:59.228Z,79.54
2022-10-13T08:20:02.176Z,79.24
2022-10-13T08:22:09.610Z,79.00
2022-10-13T08:24:15.160Z,78.21
2022-10-13T08:26:21.063Z,78.61
2022-10-13T08:28:25.811Z,78.89
2022-10-13T08:30:28.894Z,78.67
2022-10-13T08:32:31.748Z,79.08
2022-10-13T08:34:36.462Z,78.83
2022-10-13T08:36:39.292Z,79.31
2022-10-13T08:38:43.441Z,78.96
2022-10-13T08:40:48.177Z,79.49
2022-10-13T08:42:52.277Z,80.13
2022-10-13T08:45:39.619Z,79.85
2022-10-13T08:47:39.299Z,79.34
2022-10-13T08:49:46.073Z,79.15
2022-10-13T08:51:48.865Z,78.84
2022-10-13T08:53:53.045Z,78.81
2022-10-13T08:55:58.847Z,78.45
2022-10-13T08:58:07.087Z,78.94
2022-10-13T09:00:13.634Z,78.71
2022-10-13T09:02:24.556Z,78.54
2022-10-13T09:04:31.803Z,78.98
2022-10-13T09:06:38.780Z,78.76
2022-10-13T09:08:46.306Z,78.21
2022-10-13T09:10:52.244Z,78.23
2022-10-13T09:12:55.969Z,78.42
2022-10-13T09:15:01.804Z,78.60
2022-10-13T09:17:19.768Z,77.89
2022-10-13T09:19:27.199Z,78.00
2022-10-13T09:21:30.206Z,78.27
2022-10-13T09:23:34.411Z,78.55
2022-10-13T09:25:42.599Z,78.17
2022-10-13T09:27:50.278Z,78.04
2022-10-13T09:29:53.727Z,78.24
2022-10-13T09:32:14.082Z,78.35
2022-10-13T09:34:25.008Z,78.45
2022-10-13T09:36:34.323Z,78.04
2022-10-13T09:38:37.193Z,77.13
2022-10-13T09:42:54.203Z,77.90
2022-10-13T09:45:00.260Z,77.80
2022-10-13T09:47:05.244Z,78.50
2022-10-13T09:49:22.084Z,78.18
2022-10-13T09:51:45.875Z,78.09
2022-10-13T09:53:54.676Z,78.69
2022-10-13T09:56:09.892Z,78.65
2022-10-13T09:58:16.759Z,78.04
2022-10-13T10:00:22.634Z,78.53
2022-10-13T10:02:32.181Z,78.31
2022-10-13T10:04:41.801Z,78.34
2022-10-13T10:06:46.288Z,78.22
2022-10-13T10:09:04.863Z,78.19
2022-10-13T10:11:13.279Z,78.31
2022-10-13T10:13:17.428Z,77.93
2022-10-13T10:15:25.141Z,77.50
2022-10-13T10:17:34.717Z,77.68
2022-10-13T10:19:48.803Z,77.94
2022-10-13T10:22:03.980Z,77.95
2022-10-13T10:24:22.596Z,77.42
2022-10-13T10:26:32.821Z,77.55
2022-10-13T10:28:48.477Z,77.44
2022-10-13T10:31:01.027Z,77.43
2022-10-13T10:33:09.633Z,77.74
2022-10-13T10:35:15.135Z,77.61
2022-10-13T10:37:21.464Z,77.61
2022-10-13T10:39:33.469Z,77.63
2022-10-13T10:41:45.127Z,77.58
2022-10-13T10:43:53.764Z,77.65
2022-10-13T10:45:58.627Z,78.32
2022-10-13T10:48:05.688Z,78.40
2022-10-13T10:50:14.294Z,78.21
2022-10-13T10:52:25.258Z,78.61
2022-10-13T10:54:49.233Z,78.88
2022-10-13T10:56:56.925Z,78.20
2022-10-13T10:59:12.389Z,77.88
2022-10-13T11:01:25.825Z,78.23
2022-10-13T11:03:41.162Z,78.23
2022-10-13T11:06:01.040Z,77.73
2022-10-13T11:08:04.429Z,77.43
2022-10-13T11:10:22.418Z,77.49
2022-10-13T11:12:25.752Z,77.35
2022-10-13T11:14:31.855Z,76.46
2022-10-13T11:16:39.665Z,76.47
2022-10-13T11:19:05.621Z,76.73
2022-10-13T11:21:08.549Z,76.54
2022-10-13T11:23:32.720Z,74.63
2022-10-13T11:25:39.900Z,74.62
2022-10-13T11:27:46.137Z,75.17
2022-10-13T11:29:56.788Z,75.49
2022-10-13T11:31:59.609Z,75.33
2022-10-13T11:34:03.465Z,75.11
2022-10-13T11:36:37.897Z,74.99
2022-10-13T11:38:58.003Z,75.23
2022-10-13T11:41:13.599Z,74.76
2022-10-13T11:43:32.526Z,75.68
2022-10-13T11:46:09.442Z,73.69
2022-10-13T11:48:53.505Z,74.38
2022-10-13T11:51:10.330Z,74.26
2022-10-13T11:53:18.675Z,74.84
2022-10-13T11:55:31.805Z,74.33
2022-10-13T11:57:34.540Z,74.43
2022-10-13T11:59:38.411Z,74.78
2022-10-13T12:01:46.254Z,74.54
2022-10-13T12:03:50.928Z,74.87
2022-10-13T12:05:56.883Z,74.31
2022-10-13T12:08:05.030Z,74.30
2022-10-13T12:10:18.875Z,74.01
2022-10-13T12:12:23.527Z,74.10
2022-10-13T12:14:33.363Z,74.22
2022-10-13T12:16:36.164Z,74.31
2022-10-13T12:18:41.421Z,74.69
2022-10-13T12:20:44.210Z,74.80
2022-10-13T12:22:48.387Z,74.85
2022-10-13T12:24:59.475Z,75.08
2022-10-13T12:27:11.545Z,74.97
2022-10-13T12:29:15.860Z,74.79
2022-10-13T12:31:21.111Z,75.29
2022-10-13T12:33:29.046Z,75.04
2022-10-13T12:35:34.653Z,74.38
2022-10-13T12:37:38.253Z,75.18
2022-10-13T12:39:41.788Z,75.27
2022-10-13T12:41:46.892Z,74.80
2022-10-13T12:43:51.570Z,74.90
2022-10-13T12:45:54.318Z,74.86
2022-10-13T12:47:57.161Z,74.33
2022-10-13T12:50:24.677Z,74.71
2022-10-13T12:52:28.837Z,74.86
2022-10-13T12:54:33.599Z,74.83
2022-10-13T12:56:36.516Z,75.42
2022-10-13T12:58:44.441Z,75.32
2022-10-13T13:00:57.070Z,74.56
2022-10-13T13:03:01.860Z,74.59
2022-10-13T13:05:04.983Z,74.48
2022-10-13T13:07:26.220Z,74.47
2022-10-13T13:09:31.506Z,73.88
2022-10-13T13:11:36.854Z,74.28
2022-10-13T13:13:45.117Z,74.49
2022-10-13T13:15:52.659Z,73.83
2022-10-13T13:17:58.650Z,73.77
2022-10-13T13:20:01.691Z,73.38
2022-10-13T13:22:05.388Z,73.98
2022-10-13T13:24:21.739Z,74.57
2022-10-13T13:26:26.091Z,74.00
2022-10-13T13:28:31.091Z,74.56
2022-10-13T13:30:34.568Z,74.28
2022-10-13T13:32:37.332Z,74.39
2022-10-13T13:34:40.394Z,73.75
2022-10-13T13:36:43.431Z,73.77
2022-10-13T13:38:46.539Z,73.91
2022-10-13T13:40:49.318Z,74.14
2022-10-13T13:42:53.540Z,74.41
2022-10-13T13:44:56.579Z,73.98
2022-10-13T13:46:59.359Z,74.19
2022-10-13T13:49:02.674Z,73.73
2022-10-13T13:51:05.596Z,74.42
2022-10-13T13:53:08.366Z,74.39
2022-10-13T13:55:11.196Z,74.34
2022-10-13T13:57:15.483Z,74.21
2022-10-13T13:59:19.593Z,74.42
2022-10-13T14:01:23.578Z,74.64
2022-10-13T14:03:26.481Z,74.47
2022-10-13T14:05:29.306Z,73.48
2022-10-13T14:07:32.417Z,73.32
2022-10-13T14:09:35.230Z,73.73
2022-10-13T14:11:38.026Z,73.88
2022-10-13T14:13:40.800Z,73.67
2022-10-13T14:15:44.991Z,73.45
2022-10-13T14:17:47.731Z,73.49
2022-10-13T14:19:50.481Z,73.98
2022-10-13T14:21:53.264Z,73.77
2022-10-13T14:23:56.136Z,73.80
2022-10-13T14:26:01.861Z,73.97
2022-10-13T14:28:05.251Z,74.44
2022-10-13T14:30:09.103Z,74.77
2022-10-13T14:32:13.428Z,74.47
2022-10-13T14:34:16.289Z,74.94
2022-10-13T14:36:19.079Z,74.63
2022-10-13T14:38:21.868Z,74.90
2022-10-13T14:40:24.772Z,74.70
2022-10-13T14:42:27.505Z,74.86
2022-10-13T14:44:30.280Z,75.07
2022-10-13T14:46:33.062Z,74.53
2022-10-13T14:48:38.451Z,74.55
2022-10-13T14:50:41.155Z,74.50
2022-10-13T14:52:43.930Z,75.00
2022-10-13T14:54:47.500Z,75.01
2022-10-13T14:56:50.316Z,74.60
2022-10-13T14:58:54.701Z,75.01
2022-10-13T15:00:58.131Z,74.88
2022-10-13T15:03:00.926Z,74.53
2022-10-13T15:05:05.879Z,75.13
2022-10-13T15:07:08.764Z,74.87
2022-10-13T15:09:12.688Z,74.73
2022-10-13T15:11:16.789Z,75.33
2022-10-13T15:13:19.516Z,75.17
2022-10-13T15:15:24.075Z,75.86
2022-10-13T15:17:27.973Z,76.14
2022-10-13T15:19:30.778Z,75.90
2022-10-13T15:21:34.980Z,75.81
2022-10-13T15:23:39.765Z,75.93
2022-10-13T15:25:50.978Z,75.99
2022-10-13T15:27:53.869Z,75.85
2022-10-13T15:29:56.609Z,75.91
2022-10-13T15:32:10.256Z,75.81
2022-10-13T15:34:13.015Z,76.28
2022-10-13T15:36:16.155Z,76.21
2022-10-13T15:38:21.858Z,75.89
2022-10-13T15:40:24.767Z,75.98
2022-10-13T15:42:27.613Z,75.67
2022-10-13T15:44:51.118Z,75.76
2022-10-13T15:47:07.416Z,76.02
2022-10-13T15:49:10.917Z,76.03
2022-10-13T15:51:16.655Z,76.14
2022-10-13T15:53:21.068Z,76.34
2022-10-13T15:55:23.992Z,76.14
2022-10-13T15:57:26.891Z,76.63
2022-10-13T15:59:29.693Z,76.38
2022-10-13T16:01:32.981Z,76.97
2022-10-13T16:03:36.027Z,76.65
2022-10-13T16:05:41.105Z,76.79
2022-10-13T16:07:44.078Z,77.55
2022-10-13T16:09:48.160Z,77.43
2022-10-13T16:11:53.247Z,78.12
2022-10-13T16:13:56.197Z,77.86
2022-10-13T16:15:59.430Z,78.56
2022-10-13T16:18:02.217Z,78.35
2022-10-13T16:20:06.382Z,78.55
2022-10-13T16:22:09.332Z,78.59
2022-10-13T16:24:12.158Z,78.72
2022-10-13T16:26:18.166Z,79.01
2022-10-13T16:28:21.178Z,79.06
2022-10-13T16:30:24.063Z,79.14
2022-10-13T16:32:26.927Z,78.61
2022-10-13T16:34:30.144Z,79.36
2022-10-13T16:36:33.024Z,79.26
2022-10-13T16:38:36.024Z,79.61
2022-10-13T16:40:39.709Z,79.71
2022-10-13T16:42:44.925Z,79.06
2022-10-13T16:44:47.757Z,79.48
2022-10-13T16:46:52.426Z,79.15
2022-10-13T16:48:55.070Z,79.32
2022-10-13T16:50:57.973Z,80.11
2022-10-13T16:53:01.283Z,79.82
2022-10-13T16:55:04.679Z,79.61
2022-10-13T16:57:07.467Z,79.65
2022-10-13T16:59:12.129Z,79.59
2022-10-13T17:01:14.815Z,80.00
2022-10-13T17:03:17.808Z,80.21
2022-10-13T17:05:23.829Z,80.63
2022-10-13T17:07:29.537Z,79.89
2022-10-13T17:09:32.634Z,80.05
2022-10-13T17:11:35.718Z,80.85
2022-10-13T17:13:41.037Z,80.31
2022-10-13T17:15:51.624Z,80.12
2022-10-13T17:17:54.422Z,80.66
2022-10-13T17:19:57.211Z,80.48
2022-10-13T17:21:59.952Z,80.66
2022-10-13T17:24:02.764Z,80.23
2022-10-13T17:26:07.659Z,80.26
2022-10-13T17:28:10.583Z,80.43
2022-10-13T17:30:13.349Z,80.31
2022-10-13T17:32:17.459Z,80.82
2022-10-13T17:34:20.244Z,80.80
2022-10-13T17:36:26.501Z,80.94
2022-10-13T17:38:30.322Z,81.15
2022-10-13T17:40:34.695Z,80.94
2022-10-13T17:42:38.441Z,80.80
2022-10-13T17:44:42.581Z,80.82
2022-10-13T17:46:48.397Z,80.35
2022-10-13T17:48:52.653Z,80.45
2022-10-13T17:50:55.432Z,80.92
2022-10-13T17:52:58.404Z,80.78
2022-10-13T17:55:01.181Z,81.02
2022-10-13T17:57:04.066Z,80.77
2022-10-13T17:59:06.875Z,80.90
2022-10-13T18:01:13.862Z,80.81
2022-10-13T18:03:16.764Z,81.60
2022-10-13T18:05:21.979Z,81.15
2022-10-13T18:07:24.825Z,81.09
2022-10-13T18:09:27.632Z,80.99
2022-10-13T18:11:30.496Z,81.30
2022-10-13T18:13:33.774Z,81.43
2022-10-13T18:15:37.017Z,81.17
2022-10-13T18:17:39.783Z,81.28
2022-10-13T18:19:42.842Z,81.78
2022-10-13T18:21:46.983Z,81.62
2022-10-13T18:23:50.296Z,81.50
2022-10-13T18:25:53.088Z,81.64
2022-10-13T18:27:57.122Z,81.52
2022-10-13T18:29:59.982Z,82.02
2022-10-13T18:32:05.090Z,82.13
2022-10-13T18:34:11.138Z,81.27
2022-10-13T18:36:16.259Z,81.39
2022-10-13T18:38:20.362Z,81.45
2022-10-13T18:40:23.114Z,82.28
2022-10-13T18:42:27.616Z,81.90
2022-10-13T18:44:30.358Z,81.67
2022-10-13T18:46:34.345Z,82.04
2022-10-13T18:48:37.197Z,81.51
2022-10-13T18:50:41.488Z,82.39
2022-10-13T18:52:44.333Z,82.21
2022-10-13T18:54:50.620Z,82.18
2022-10-13T18:56:54.537Z,81.62
2022-10-13T18:58:59.920Z,82.04
2022-10-13T19:01:04.397Z,82.15
2022-10-13T19:03:07.660Z,81.91
2022-10-13T19:05:11.358Z,81.90
2022-10-13T19:07:14.118Z,82.21
2022-10-13T19:09:18.055Z,82.61
2022-10-13T19:11:22.428Z,82.31
2022-10-13T19:13:26.022Z,81.76
2022-10-13T19:15:28.859Z,81.82
2022-10-13T19:17:33.559Z,81.66
2022-10-13T19:19:36.384Z,81.43
2022-10-13T19:21:39.916Z,81.57
2022-10-13T19:23:44.994Z,81.86
2022-10-13T19:25:57.251Z,81.91
2022-10-13T19:28:01.395Z,81.93
2022-10-13T19:30:04.765Z,81.47
2022-10-13T19:32:07.765Z,81.73
2022-10-13T19:34:11.783Z,81.91
2022-10-13T19:36:22.601Z,81.82
2022-10-13T19:38:25.412Z,81.26
2022-10-13T19:40:28.176Z,81.49
2022-10-13T19:42:31.040Z,81.84
2022-10-13T19:44:36.570Z,81.63
2022-10-13T19:46:39.816Z,82.19
2022-10-13T19:48:43.198Z,81.95
2022-10-13T19:50:47.121Z,82.05
2022-10-13T19:52:51.325Z,82.05
2022-10-13T19:54:54.250Z,82.28
2022-10-13T19:56:57.079Z,81.57
2022-10-13T19:59:00.429Z,81.85
2022-10-13T20:01:06.718Z,82.12
2022-10-13T20:03:09.777Z,82.63
2022-10-13T20:05:15.673Z,81.92
2022-10-13T20:07:18.911Z,82.41
2022-10-13T20:09:22.001Z,82.59
2022-10-13T20:11:24.722Z,82.55
2022-10-13T20:13:27.488Z,82.53
2022-10-13T20:15:40.094Z,82.70
2022-10-13T20:17:44.270Z,82.11
2022-10-13T20:19:47.116Z,82.19
2022-10-13T20:21:51.606Z,82.59
2022-10-13T20:23:54.381Z,82.65
2022-10-13T20:25:57.167Z,82.69
2022-10-13T20:28:04.312Z,83.04
2022-10-13T20:30:08.295Z,82.89
2022-10-13T20:32:11.106Z,82.84
2022-10-13T20:34:15.250Z,82.68
2022-10-13T20:36:18.789Z,82.94
2022-10-13T20:38:21.538Z,82.82
2022-10-13T20:40:24.279Z,82.54
2022-10-13T20:42:27.080Z,83.00
2022-10-13T20:44:29.887Z,82.48
2022-10-13T20:46:32.636Z,82.79
2022-10-13T20:49:05.203Z,82.61
2022-10-13T20:51:05.600Z,82.66
2022-10-13T20:53:08.392Z,82.80
2022-10-13T20:55:11.558Z,82.09
2022-10-13T20:57:14.351Z,81.94
2022-10-13T20:59:17.258Z,82.29
2022-10-13T21:01:22.151Z,82.84
2022-10-13T21:03:25.813Z,82.12
2022-10-13T21:05:29.497Z,82.43
2022-10-13T21:07:33.602Z,81.78
2022-10-13T21:09:36.653Z,82.32
2022-10-13T21:11:39.870Z,82.59
2022-10-13T21:13:44.517Z,82.50
2022-10-13T21:15:47.158Z,83.06
2022-10-13T21:17:53.784Z,83.25
2022-10-13T21:19:56.614Z,82.85
2022-10-13T21:21:59.384Z,82.55
2022-10-13T21:24:06.165Z,82.55
2022-10-13T21:26:10.447Z,82.61
2022-10-13T21:28:13.345Z,81.73
2022-10-13T21:30:16.237Z,82.91
2022-10-13T21:32:19.398Z,82.79
2022-10-13T21:34:23.225Z,82.16
2022-10-13T21:36:27.698Z,82.48
2022-10-13T21:38:30.391Z,82.67
2022-10-13T21:40:34.503Z,82.27
2022-10-13T21:42:37.501Z,82.18
2022-10-13T21:44:40.273Z,82.29
2022-10-13T21:46:43.971Z,82.16
2022-10-13T21:48:48.697Z,81.94
2022-10-13T21:50:51.428Z,81.98
2022-10-13T21:52:54.194Z,81.54
2022-10-13T21:54:59.767Z,81.90
2022-10-13T21:57:03.895Z,81.85
2022-10-13T21:59:07.177Z,82.80
2022-10-13T22:01:10.255Z,81.90
2022-10-13T22:03:13.053Z,82.08
2022-10-13T22:05:16.012Z,82.22
2022-10-13T22:07:21.036Z,82.59
2022-10-13T22:09:23.913Z,82.87
2022-10-13T22:11:31.295Z,83.11
2022-10-13T22:13:36.369Z,82.41
2022-10-13T22:15:39.141Z,82.51
2022-10-13T22:17:41.885Z,82.38
2022-10-13T22:19:44.674Z,82.28
2022-10-13T22:21:48.910Z,82.06
2022-10-13T22:23:51.776Z,82.76
2022-10-13T22:25:55.084Z,82.32
2022-10-13T22:27:57.832Z,82.51
2022-10-13T22:30:01.903Z,83.11
2022-10-13T22:32:05.073Z,82.14
2022-10-13T22:34:07.884Z,83.19
2022-10-13T22:36:13.299Z,82.31
2022-10-13T22:38:16.463Z,82.44
2022-10-13T22:40:19.316Z,82.10
2022-10-13T22:42:22.182Z,81.50
2022-10-13T22:44:24.969Z,82.19
2022-10-13T22:46:30.951Z,81.53
2022-10-13T22:48:39.693Z,82.03
2022-10-13T22:50:45.754Z,81.86
2022-10-13T22:52:48.507Z,81.93
2022-10-13T22:54:51.229Z,81.50
2022-10-13T22:56:54.008Z,81.77
2022-10-13T22:58:58.720Z,82.02
2022-10-13T23:01:06.186Z,81.97
2022-10-13T23:03:14.040Z,82.44
2022-10-13T23:05:21.837Z,82.31
2022-10-13T23:07:24.661Z,82.34
2022-10-13T23:09:27.492Z,82.68
2022-10-13T23:11:30.255Z,82.75
2022-10-13T23:13:33.094Z,81.94
2022-10-13T23:15:38.795Z,81.60
2022-10-13T23:17:41.567Z,82.00
2022-10-13T23:19:45.785Z,82.42
2022-10-13T23:21:48.581Z,82.29
2022-10-13T23:23:55.602Z,81.52
2022-10-13T23:26:03.086Z,81.56
2022-10-13T23:28:06.185Z,81.51
2022-10-13T23:30:10.015Z,81.24
2022-10-13T23:32:12.780Z,81.43
2022-10-13T23:34:18.210Z,81.66
2022-10-13T23:36:24.920Z,81.89
2022-10-13T23:38:30.981Z,81.82
2022-10-13T23:40:34.649Z,81.49
2022-10-13T23:42:37.412Z,81.26
2022-10-13T23:44:40.192Z,82.14
2022-10-13T23:46:42.968Z,82.07
2022-10-13T23:48:46.695Z,81.27
2022-10-13T23:50:49.425Z,81.57
2022-10-13T23:52:53.543Z,81.55
2022-10-13T23:54:56.321Z,81.95
2022-10-13T23:56:59.849Z,81.61
2022-10-13T23:59:02.703Z,81.53
